Terminal Aerodrome Forecast
Issued by NWS Cleveland, OH

Home | Current Version | Previous Version | Graphics & Text | Print | Product List | Glossary Off
Versions: 1 2 3 4 5 6 7 8 9 10 11 12 13 14 15 16 17 18 19 20 21

000
FTUS41 KCLE 262300 RRA
TAFTOL
TAF
KTOL 262341Z 2700/2724 19006KT P6SM OVC250
     FM270500 22005KT P6SM OVC025
     FM271600 22010KT P6SM OVC040
     FM271800 22010G20KT 6SM -RA OVC025
     FM272200 24009KT 6SM HZ OVC015=

USA.gov is the U.S. government's official web portal to all federal, state and local government web resources and services.